sensor_id;sensor_type;location;lat;lon;timestamp;temperature;humidity
44705;DHT22;30431;48.520;9.046;2023-02-02T00:01:32;5.40;99.90
44705;DHT22;30431;48.520;9.046;2023-02-02T00:04:21;5.40;99.90
44705;DHT22;30431;48.520;9.046;2023-02-02T00:06:49;5.50;99.90
44705;DHT22;30431;48.520;9.046;2023-02-02T00:09:17;5.40;99.90
44705;DHT22;30431;48.520;9.046;2023-02-02T00:11:46;5.50;99.90
44705;DHT22;30431;48.520;9.046;2023-02-02T00:14:13;5.50;99.90
44705;DHT22;30431;48.520;9.046;2023-02-02T00:16:41;5.50;99.90
44705;DHT22;30431;48.520;9.046;2023-02-02T00:19:12;5.50;99.90
44705;DHT22;30431;48.520;9.046;2023-02-02T00:21:42;5.50;99.90
44705;DHT22;30431;48.520;9.046;2023-02-02T00:24:10;5.50;99.90
44705;DHT22;30431;48.520;9.046;2023-02-02T00:26:39;5.50;99.90
44705;DHT22;30431;48.520;9.046;2023-02-02T00:29:10;5.50;99.90
44705;DHT22;30431;48.520;9.046;2023-02-02T00:31:41;5.50;99.90
44705;DHT22;30431;48.520;9.046;2023-02-02T00:34:10;5.50;99.90
44705;DHT22;30431;48.520;9.046;2023-02-02T00:36:37;5.50;99.90
44705;DHT22;30431;48.520;9.046;2023-02-02T00:39:05;5.50;99.90
44705;DHT22;30431;48.520;9.046;2023-02-02T00:41:32;5.50;99.90
44705;DHT22;30431;48.520;9.046;2023-02-02T00:43:59;5.40;99.90
44705;DHT22;30431;48.520;9.046;2023-02-02T00:46:50;5.50;99.90
44705;DHT22;30431;48.520;9.046;2023-02-02T00:49:21;5.50;99.90
44705;DHT22;30431;48.520;9.046;2023-02-02T00:51:53;5.50;99.90
44705;DHT22;30431;48.520;9.046;2023-02-02T00:54:23;5.40;99.90
44705;DHT22;30431;48.520;9.046;2023-02-02T00:56:51;5.40;99.90
44705;DHT22;30431;48.520;9.046;2023-02-02T00:59:20;5.40;99.90
44705;DHT22;30431;48.520;9.046;2023-02-02T01:01:48;5.40;99.90
44705;DHT22;30431;48.520;9.046;2023-02-02T01:04:15;5.40;99.90
44705;DHT22;30431;48.520;9.046;2023-02-02T01:06:45;5.40;99.90
44705;DHT22;30431;48.520;9.046;2023-02-02T01:09:18;5.40;99.90
44705;DHT22;30431;48.520;9.046;2023-02-02T01:11:48;5.40;99.90
44705;DHT22;30431;48.520;9.046;2023-02-02T01:14:22;5.40;99.90
44705;DHT22;30431;48.520;9.046;2023-02-02T01:16:52;5.50;99.90
44705;DHT22;30431;48.520;9.046;2023-02-02T01:19:20;5.50;99.90
44705;DHT22;30431;48.520;9.046;2023-02-02T01:21:51;5.50;99.90
44705;DHT22;30431;48.520;9.046;2023-02-02T01:24:23;5.50;99.90
44705;DHT22;30431;48.520;9.046;2023-02-02T01:26:53;5.50;99.90
44705;DHT22;30431;48.520;9.046;2023-02-02T01:29:42;5.50;99.90
44705;DHT22;30431;48.520;9.046;2023-02-02T01:32:13;5.50;99.90
44705;DHT22;30431;48.520;9.046;2023-02-02T01:34:40;5.50;99.90
44705;DHT22;30431;48.520;9.046;2023-02-02T01:37:13;5.50;99.90
44705;DHT22;30431;48.520;9.046;2023-02-02T01:39:43;5.50;99.90
44705;DHT22;30431;48.520;9.046;2023-02-02T01:42:19;5.60;99.90
44705;DHT22;30431;48.520;9.046;2023-02-02T01:45:05;5.60;99.90
44705;DHT22;30431;48.520;9.046;2023-02-02T01:47:37;5.50;99.90
44705;DHT22;30431;48.520;9.046;2023-02-02T01:50:05;5.60;99.90
44705;DHT22;30431;48.520;9.046;2023-02-02T01:52:36;5.60;99.90
44705;DHT22;30431;48.520;9.046;2023-02-02T01:55:10;5.50;99.90
44705;DHT22;30431;48.520;9.046;2023-02-02T02:00:38;5.60;99.90
44705;DHT22;30431;48.520;9.046;2023-02-02T02:03:12;5.50;99.90
44705;DHT22;30431;48.520;9.046;2023-02-02T02:05:46;5.50;99.90
44705;DHT22;30431;48.520;9.046;2023-02-02T02:08:34;5.50;99.90
44705;DHT22;30431;48.520;9.046;2023-02-02T02:11:04;5.50;99.90
44705;DHT22;30431;48.520;9.046;2023-02-02T02:13:36;5.50;99.90
44705;DHT22;30431;48.520;9.046;2023-02-02T02:19:19;5.50;99.90
44705;DHT22;30431;48.520;9.046;2023-02-02T02:22:09;5.50;99.90
44705;DHT22;30431;48.520;9.046;2023-02-02T02:33:34;5.50;99.90
44705;DHT22;30431;48.520;9.046;2023-02-02T02:39:21;5.40;99.90
44705;DHT22;30431;48.520;9.046;2023-02-02T02:41:52;5.40;99.90
44705;DHT22;30431;48.520;9.046;2023-02-02T02:44:22;5.30;99.90
44705;DHT22;30431;48.520;9.046;2023-02-02T02:46:50;5.20;99.90
44705;DHT22;30431;48.520;9.046;2023-02-02T02:49:18;5.00;99.90
44705;DHT22;30431;48.520;9.046;2023-02-02T02:51:50;4.90;99.90
44705;DHT22;30431;48.520;9.046;2023-02-02T02:54:44;4.80;99.90
44705;DHT22;30431;48.520;9.046;2023-02-02T03:03:15;4.50;99.90
44705;DHT22;30431;48.520;9.046;2023-02-02T03:06:03;4.50;99.90
44705;DHT22;30431;48.520;9.046;2023-02-02T03:08:42;4.50;99.90
44705;DHT22;30431;48.520;9.046;2023-02-02T03:11:14;4.60;99.90
44705;DHT22;30431;48.520;9.046;2023-02-02T03:13:44;4.70;99.90
44705;DHT22;30431;48.520;9.046;2023-02-02T03:16:15;4.80;99.90
44705;DHT22;30431;48.520;9.046;2023-02-02T03:18:49;4.90;99.90
44705;DHT22;30431;48.520;9.046;2023-02-02T03:21:25;4.90;99.90
44705;DHT22;30431;48.520;9.046;2023-02-02T03:23:56;5.00;99.90
44705;DHT22;30431;48.520;9.046;2023-02-02T03:26:31;5.00;99.90
44705;DHT22;30431;48.520;9.046;2023-02-02T03:29:01;5.00;99.90
44705;DHT22;30431;48.520;9.046;2023-02-02T03:31:31;5.00;99.90
44705;DHT22;30431;48.520;9.046;2023-02-02T03:33:59;5.10;99.90
44705;DHT22;30431;48.520;9.046;2023-02-02T03:36:26;5.10;99.90
44705;DHT22;30431;48.520;9.046;2023-02-02T03:38:53;5.10;99.90
44705;DHT22;30431;48.520;9.046;2023-02-02T03:41:20;5.10;99.90
44705;DHT22;30431;48.520;9.046;2023-02-02T03:43:47;5.10;99.90
44705;DHT22;30431;48.520;9.046;2023-02-02T03:46:14;5.00;99.90
44705;DHT22;30431;48.520;9.046;2023-02-02T03:48:41;5.00;99.90
44705;DHT22;30431;48.520;9.046;2023-02-02T03:51:13;5.00;99.90
44705;DHT22;30431;48.520;9.046;2023-02-02T03:53:41;5.00;99.90
44705;DHT22;30431;48.520;9.046;2023-02-02T03:56:14;5.00;99.90
44705;DHT22;30431;48.520;9.046;2023-02-02T03:58:41;5.10;99.90
44705;DHT22;30431;48.520;9.046;2023-02-02T04:01:11;5.10;99.90
44705;DHT22;30431;48.520;9.046;2023-02-02T04:03:38;5.10;99.90
44705;DHT22;30431;48.520;9.046;2023-02-02T04:06:05;5.20;99.90
44705;DHT22;30431;48.520;9.046;2023-02-02T04:08:32;5.20;99.90
44705;DHT22;30431;48.520;9.046;2023-02-02T04:10:59;5.20;99.90
44705;DHT22;30431;48.520;9.046;2023-02-02T04:13:29;5.20;99.90
44705;DHT22;30431;48.520;9.046;2023-02-02T04:16:02;5.20;99.90
44705;DHT22;30431;48.520;9.046;2023-02-02T04:18:40;5.30;99.90
44705;DHT22;30431;48.520;9.046;2023-02-02T04:21:11;5.30;99.90
44705;DHT22;30431;48.520;9.046;2023-02-02T04:24:04;5.30;99.90
44705;DHT22;30431;48.520;9.046;2023-02-02T04:26:37;5.30;99.90
44705;DHT22;30431;48.520;9.046;2023-02-02T04:29:08;5.40;99.90
44705;DHT22;30431;48.520;9.046;2023-02-02T04:31:35;5.40;99.90
44705;DHT22;30431;48.520;9.046;2023-02-02T04:34:02;5.40;99.90
44705;DHT22;30431;48.520;9.046;2023-02-02T04:36:44;5.40;99.90
44705;DHT22;30431;48.520;9.046;2023-02-02T04:39:13;5.40;99.90
44705;DHT22;30431;48.520;9.046;2023-02-02T04:41:40;5.40;99.90
44705;DHT22;30431;48.520;9.046;2023-02-02T04:44:15;5.40;99.90
44705;DHT22;30431;48.520;9.046;2023-02-02T04:46:43;5.40;99.90
44705;DHT22;30431;48.520;9.046;2023-02-02T04:49:13;5.40;99.90
44705;DHT22;30431;48.520;9.046;2023-02-02T04:51:43;5.40;99.90
44705;DHT22;30431;48.520;9.046;2023-02-02T04:54:10;5.40;99.90
44705;DHT22;30431;48.520;9.046;2023-02-02T04:56:40;5.40;99.90
44705;DHT22;30431;48.520;9.046;2023-02-02T04:59:07;5.40;99.90
44705;DHT22;30431;48.520;9.046;2023-02-02T05:01:34;5.40;99.90
44705;DHT22;30431;48.520;9.046;2023-02-02T05:04:00;5.30;99.90
44705;DHT22;30431;48.520;9.046;2023-02-02T05:06:28;5.30;99.90
44705;DHT22;30431;48.520;9.046;2023-02-02T05:08:55;5.20;99.90
44705;DHT22;30431;48.520;9.046;2023-02-02T05:11:22;5.10;99.90
44705;DHT22;30431;48.520;9.046;2023-02-02T05:13:52;5.00;99.90
44705;DHT22;30431;48.520;9.046;2023-02-02T05:16:20;4.90;99.90
44705;DHT22;30431;48.520;9.046;2023-02-02T05:18:56;4.90;99.90
44705;DHT22;30431;48.520;9.046;2023-02-02T05:21:28;4.90;99.90
44705;DHT22;30431;48.520;9.046;2023-02-02T05:23:55;4.90;99.90
44705;DHT22;30431;48.520;9.046;2023-02-02T05:26:24;4.90;99.90
44705;DHT22;30431;48.520;9.046;2023-02-02T05:28:54;4.90;99.90
44705;DHT22;30431;48.520;9.046;2023-02-02T05:31:23;4.90;99.90
44705;DHT22;30431;48.520;9.046;2023-02-02T05:33:53;4.90;99.90
44705;DHT22;30431;48.520;9.046;2023-02-02T05:36:25;4.90;99.90
44705;DHT22;30431;48.520;9.046;2023-02-02T05:38:52;5.00;99.90
44705;DHT22;30431;48.520;9.046;2023-02-02T05:41:21;5.00;99.90
44705;DHT22;30431;48.520;9.046;2023-02-02T05:43:52;5.00;99.90
44705;DHT22;30431;48.520;9.046;2023-02-02T05:46:19;5.10;99.90
44705;DHT22;30431;48.520;9.046;2023-02-02T05:48:46;5.10;99.90
44705;DHT22;30431;48.520;9.046;2023-02-02T05:53:52;5.20;99.90
44705;DHT22;30431;48.520;9.046;2023-02-02T05:56:21;5.20;99.90
44705;DHT22;30431;48.520;9.046;2023-02-02T05:58:49;5.20;99.90
44705;DHT22;30431;48.520;9.046;2023-02-02T06:01:18;5.20;99.90
44705;DHT22;30431;48.520;9.046;2023-02-02T06:03:47;5.20;99.90
44705;DHT22;30431;48.520;9.046;2023-02-02T06:06:14;5.20;99.90
44705;DHT22;30431;48.520;9.046;2023-02-02T06:08:41;5.20;99.90
44705;DHT22;30431;48.520;9.046;2023-02-02T06:11:12;5.20;99.90
44705;DHT22;30431;48.520;9.046;2023-02-02T06:13:40;5.20;99.90
44705;DHT22;30431;48.520;9.046;2023-02-02T06:16:10;5.20;99.90
44705;DHT22;30431;48.520;9.046;2023-02-02T06:18:38;5.20;99.90
44705;DHT22;30431;48.520;9.046;2023-02-02T06:21:05;5.10;99.90
44705;DHT22;30431;48.520;9.046;2023-02-02T06:23:35;5.10;99.90
44705;DHT22;30431;48.520;9.046;2023-02-02T06:26:02;5.10;99.90
44705;DHT22;30431;48.520;9.046;2023-02-02T06:28:30;5.10;99.90
44705;DHT22;30431;48.520;9.046;2023-02-02T06:31:05;5.10;99.90
44705;DHT22;30431;48.520;9.046;2023-02-02T06:33:33;5.10;99.90
44705;DHT22;30431;48.520;9.046;2023-02-02T06:36:03;5.10;99.90
44705;DHT22;30431;48.520;9.046;2023-02-02T06:38:32;5.20;99.90
44705;DHT22;30431;48.520;9.046;2023-02-02T06:41:00;5.10;99.90
44705;DHT22;30431;48.520;9.046;2023-02-02T06:43:28;5.20;99.90
44705;DHT22;30431;48.520;9.046;2023-02-02T06:46:01;5.20;99.90
44705;DHT22;30431;48.520;9.046;2023-02-02T06:48:28;5.10;99.90
44705;DHT22;30431;48.520;9.046;2023-02-02T06:50:59;5.10;99.90
44705;DHT22;30431;48.520;9.046;2023-02-02T06:53:27;5.20;99.90
44705;DHT22;30431;48.520;9.046;2023-02-02T06:55:55;5.20;99.90
44705;DHT22;30431;48.520;9.046;2023-02-02T06:58:22;5.20;99.90
44705;DHT22;30431;48.520;9.046;2023-02-02T07:00:53;5.20;99.90
44705;DHT22;30431;48.520;9.046;2023-02-02T07:03:21;5.30;99.90
44705;DHT22;30431;48.520;9.046;2023-02-02T07:05:48;5.30;99.90
44705;DHT22;30431;48.520;9.046;2023-02-02T07:08:15;5.30;99.90
44705;DHT22;30431;48.520;9.046;2023-02-02T07:10:45;5.30;99.90
44705;DHT22;30431;48.520;9.046;2023-02-02T07:13:32;5.30;99.90
44705;DHT22;30431;48.520;9.046;2023-02-02T07:16:03;5.40;99.90
44705;DHT22;30431;48.520;9.046;2023-02-02T07:18:31;5.40;99.90
44705;DHT22;30431;48.520;9.046;2023-02-02T07:20:59;5.40;99.90
44705;DHT22;30431;48.520;9.046;2023-02-02T07:23:27;5.50;99.90
44705;DHT22;30431;48.520;9.046;2023-02-02T07:28:28;5.50;99.90
44705;DHT22;30431;48.520;9.046;2023-02-02T07:31:15;5.60;99.90
44705;DHT22;30431;48.520;9.046;2023-02-02T07:33:50;5.60;99.90
44705;DHT22;30431;48.520;9.046;2023-02-02T07:36:21;5.60;99.90
44705;DHT22;30431;48.520;9.046;2023-02-02T07:38:52;5.60;99.90
44705;DHT22;30431;48.520;9.046;2023-02-02T07:41:23;5.70;99.90
44705;DHT22;30431;48.520;9.046;2023-02-02T07:43:50;5.70;99.90
44705;DHT22;30431;48.520;9.046;2023-02-02T07:46:18;5.70;99.90
44705;DHT22;30431;48.520;9.046;2023-02-02T07:48:46;5.70;99.90
44705;DHT22;30431;48.520;9.046;2023-02-02T07:51:15;5.80;99.90
44705;DHT22;30431;48.520;9.046;2023-02-02T07:53:47;5.80;99.90
44705;DHT22;30431;48.520;9.046;2023-02-02T07:56:17;5.80;99.90
44705;DHT22;30431;48.520;9.046;2023-02-02T07:58:44;5.90;99.90
44705;DHT22;30431;48.520;9.046;2023-02-02T08:01:13;5.80;99.90
44705;DHT22;30431;48.520;9.046;2023-02-02T08:09:45;6.20;99.90
44705;DHT22;30431;48.520;9.046;2023-02-02T08:12:13;6.30;99.90
44705;DHT22;30431;48.520;9.046;2023-02-02T08:14:40;6.30;99.90
44705;DHT22;30431;48.520;9.046;2023-02-02T08:17:08;6.40;99.90
44705;DHT22;30431;48.520;9.046;2023-02-02T08:19:35;6.30;99.90
44705;DHT22;30431;48.520;9.046;2023-02-02T08:22:01;6.20;99.90
44705;DHT22;30431;48.520;9.046;2023-02-02T08:24:28;6.20;99.90
44705;DHT22;30431;48.520;9.046;2023-02-02T08:26:58;6.20;99.90
44705;DHT22;30431;48.520;9.046;2023-02-02T08:29:25;6.20;99.90
44705;DHT22;30431;48.520;9.046;2023-02-02T08:31:52;6.20;99.90
44705;DHT22;30431;48.520;9.046;2023-02-02T08:34:21;6.20;99.90
44705;DHT22;30431;48.520;9.046;2023-02-02T08:36:53;6.20;99.90
44705;DHT22;30431;48.520;9.046;2023-02-02T08:39:20;6.20;99.90
44705;DHT22;30431;48.520;9.046;2023-02-02T08:41:53;6.40;99.90
44705;DHT22;30431;48.520;9.046;2023-02-02T08:44:20;6.50;99.90
44705;DHT22;30431;48.520;9.046;2023-02-02T08:46:51;6.70;99.90
44705;DHT22;30431;48.520;9.046;2023-02-02T08:49:18;6.80;99.90
44705;DHT22;30431;48.520;9.046;2023-02-02T08:51:47;6.80;99.90
44705;DHT22;30431;48.520;9.046;2023-02-02T08:54:14;6.80;99.90
44705;DHT22;30431;48.520;9.046;2023-02-02T08:56:41;6.80;99.90
44705;DHT22;30431;48.520;9.046;2023-02-02T08:59:08;6.80;99.90
44705;DHT22;30431;48.520;9.046;2023-02-02T09:01:35;6.70;99.90
44705;DHT22;30431;48.520;9.046;2023-02-02T09:04:07;6.80;99.90
44705;DHT22;30431;48.520;9.046;2023-02-02T09:06:37;6.70;99.90
44705;DHT22;30431;48.520;9.046;2023-02-02T09:09:07;6.70;99.90
44705;DHT22;30431;48.520;9.046;2023-02-02T09:11:39;6.70;99.90
44705;DHT22;30431;48.520;9.046;2023-02-02T09:14:11;6.80;99.90
44705;DHT22;30431;48.520;9.046;2023-02-02T09:16:38;6.70;99.90
44705;DHT22;30431;48.520;9.046;2023-02-02T09:19:06;6.70;99.90
44705;DHT22;30431;48.520;9.046;2023-02-02T09:21:33;6.70;99.90
44705;DHT22;30431;48.520;9.046;2023-02-02T09:24:12;6.60;99.90
44705;DHT22;30431;48.520;9.046;2023-02-02T09:26:39;6.60;99.90
44705;DHT22;30431;48.520;9.046;2023-02-02T09:29:07;6.50;99.90
44705;DHT22;30431;48.520;9.046;2023-02-02T09:31:39;6.50;99.90
44705;DHT22;30431;48.520;9.046;2023-02-02T09:34:08;6.60;99.90
44705;DHT22;30431;48.520;9.046;2023-02-02T09:36:38;6.70;99.90
44705;DHT22;30431;48.520;9.046;2023-02-02T09:39:06;6.80;99.90
44705;DHT22;30431;48.520;9.046;2023-02-02T09:46:57;7.20;99.90
44705;DHT22;30431;48.520;9.046;2023-02-02T09:52:17;7.20;99.90
44705;DHT22;30431;48.520;9.046;2023-02-02T09:54:49;7.20;99.90
44705;DHT22;30431;48.520;9.046;2023-02-02T09:57:28;7.20;99.90
44705;DHT22;30431;48.520;9.046;2023-02-02T09:59:57;7.00;99.90
44705;DHT22;30431;48.520;9.046;2023-02-02T10:02:30;7.00;99.90
44705;DHT22;30431;48.520;9.046;2023-02-02T10:05:25;6.80;99.90
44705;DHT22;30431;48.520;9.046;2023-02-02T10:07:56;6.90;99.90
44705;DHT22;30431;48.520;9.046;2023-02-02T10:10:37;7.10;99.90
44705;DHT22;30431;48.520;9.046;2023-02-02T10:13:22;7.00;99.90
44705;DHT22;30431;48.520;9.046;2023-02-02T10:16:16;7.20;99.90
44705;DHT22;30431;48.520;9.046;2023-02-02T10:18:53;7.30;99.90
44705;DHT22;30431;48.520;9.046;2023-02-02T10:24:03;7.40;99.90
44705;DHT22;30431;48.520;9.046;2023-02-02T10:26:37;7.40;99.90
44705;DHT22;30431;48.520;9.046;2023-02-02T10:35:32;7.50;99.90
44705;DHT22;30431;48.520;9.046;2023-02-02T10:46:34;7.40;99.90
44705;DHT22;30431;48.520;9.046;2023-02-02T10:49:38;7.40;99.90
44705;DHT22;30431;48.520;9.046;2023-02-02T10:52:21;7.50;99.90
44705;DHT22;30431;48.520;9.046;2023-02-02T10:54:53;7.50;99.90
44705;DHT22;30431;48.520;9.046;2023-02-02T11:00:09;7.60;99.90
44705;DHT22;30431;48.520;9.046;2023-02-02T11:02:43;7.60;99.90
44705;DHT22;30431;48.520;9.046;2023-02-02T11:05:21;7.40;99.90
44705;DHT22;30431;48.520;9.046;2023-02-02T11:08:30;7.40;99.90
44705;DHT22;30431;48.520;9.046;2023-02-02T11:16:34;7.20;99.90
44705;DHT22;30431;48.520;9.046;2023-02-02T11:21:50;7.00;99.90
44705;DHT22;30431;48.520;9.046;2023-02-02T11:24:44;7.00;99.90
44705;DHT22;30431;48.520;9.046;2023-02-02T11:27:39;7.10;99.90
44705;DHT22;30431;48.520;9.046;2023-02-02T11:32:55;7.10;99.90
44705;DHT22;30431;48.520;9.046;2023-02-02T11:35:27;7.10;99.90
44705;DHT22;30431;48.520;9.046;2023-02-02T11:40:43;7.10;99.90
44705;DHT22;30431;48.520;9.046;2023-02-02T11:43:49;7.10;99.90
44705;DHT22;30431;48.520;9.046;2023-02-02T11:46:28;7.10;99.90
44705;DHT22;30431;48.520;9.046;2023-02-02T11:49:02;7.10;99.90
44705;DHT22;30431;48.520;9.046;2023-02-02T11:51:35;7.10;99.90
44705;DHT22;30431;48.520;9.046;2023-02-02T11:54:05;7.20;99.90
44705;DHT22;30431;48.520;9.046;2023-02-02T11:56:36;7.10;99.90
44705;DHT22;30431;48.520;9.046;2023-02-02T11:59:04;7.20;99.90
44705;DHT22;30431;48.520;9.046;2023-02-02T12:06:45;7.20;99.90
44705;DHT22;30431;48.520;9.046;2023-02-02T12:09:21;7.40;99.90
44705;DHT22;30431;48.520;9.046;2023-02-02T12:14:38;7.60;99.90
44705;DHT22;30431;48.520;9.046;2023-02-02T12:30:34;7.80;99.90
44705;DHT22;30431;48.520;9.046;2023-02-02T12:33:12;7.80;99.90
44705;DHT22;30431;48.520;9.046;2023-02-02T12:42:00;7.90;99.90
44705;DHT22;30431;48.520;9.046;2023-02-02T12:59:26;8.50;99.90
44705;DHT22;30431;48.520;9.046;2023-02-02T13:07:48;8.60;99.90
44705;DHT22;30431;48.520;9.046;2023-02-02T13:13:00;8.70;99.90
44705;DHT22;30431;48.520;9.046;2023-02-02T13:15:32;8.60;99.90
44705;DHT22;30431;48.520;9.046;2023-02-02T13:18:05;8.50;99.90
44705;DHT22;30431;48.520;9.046;2023-02-02T13:20:47;8.40;99.90
44705;DHT22;30431;48.520;9.046;2023-02-02T13:23:23;8.50;99.90
44705;DHT22;30431;48.520;9.046;2023-02-02T13:28:45;8.50;99.90
44705;DHT22;30431;48.520;9.046;2023-02-02T13:31:30;8.50;99.90
44705;DHT22;30431;48.520;9.046;2023-02-02T13:34:27;8.50;99.90
44705;DHT22;30431;48.520;9.046;2023-02-02T13:39:57;8.50;99.90
44705;DHT22;30431;48.520;9.046;2023-02-02T13:51:18;7.60;99.90
44705;DHT22;30431;48.520;9.046;2023-02-02T14:01:47;7.30;99.90
44705;DHT22;30431;48.520;9.046;2023-02-02T14:04:26;7.20;99.90
44705;DHT22;30431;48.520;9.046;2023-02-02T14:06:59;7.20;99.90
44705;DHT22;30431;48.520;9.046;2023-02-02T14:09:36;7.20;99.90
44705;DHT22;30431;48.520;9.046;2023-02-02T14:12:09;7.20;99.90
44705;DHT22;30431;48.520;9.046;2023-02-02T14:14:45;7.20;99.90
44705;DHT22;30431;48.520;9.046;2023-02-02T14:19:48;7.20;99.90
44705;DHT22;30431;48.520;9.046;2023-02-02T14:22:16;7.20;99.90
44705;DHT22;30431;48.520;9.046;2023-02-02T14:24:44;7.20;99.90
44705;DHT22;30431;48.520;9.046;2023-02-02T14:48:47;7.60;99.90
44705;DHT22;30431;48.520;9.046;2023-02-02T14:51:27;7.70;99.90
44705;DHT22;30431;48.520;9.046;2023-02-02T14:53:59;7.60;99.90
44705;DHT22;30431;48.520;9.046;2023-02-02T14:56:44;7.60;99.90
44705;DHT22;30431;48.520;9.046;2023-02-02T15:02:07;7.50;99.90
44705;DHT22;30431;48.520;9.046;2023-02-02T15:04:38;7.40;99.90
44705;DHT22;30431;48.520;9.046;2023-02-02T15:09:53;7.30;99.90
44705;DHT22;30431;48.520;9.046;2023-02-02T15:12:45;7.30;99.90
44705;DHT22;30431;48.520;9.046;2023-02-02T15:15:32;7.20;99.90
44705;DHT22;30431;48.520;9.046;2023-02-02T15:18:15;7.20;99.90
44705;DHT22;30431;48.520;9.046;2023-02-02T15:20:52;7.20;99.90
44705;DHT22;30431;48.520;9.046;2023-02-02T15:23:42;7.20;99.90
44705;DHT22;30431;48.520;9.046;2023-02-02T15:26:27;7.20;99.90
44705;DHT22;30431;48.520;9.046;2023-02-02T15:28:59;7.10;99.90
44705;DHT22;30431;48.520;9.046;2023-02-02T15:34:16;7.00;99.90
44705;DHT22;30431;48.520;9.046;2023-02-02T15:36:50;7.00;99.90
44705;DHT22;30431;48.520;9.046;2023-02-02T15:42:00;7.00;99.90
44705;DHT22;30431;48.520;9.046;2023-02-02T15:44:46;6.90;99.90
44705;DHT22;30431;48.520;9.046;2023-02-02T15:47:17;6.90;99.90
44705;DHT22;30431;48.520;9.046;2023-02-02T15:49:45;6.90;99.90
44705;DHT22;30431;48.520;9.046;2023-02-02T15:52:16;6.90;99.90
44705;DHT22;30431;48.520;9.046;2023-02-02T15:54:51;7.00;99.90
44705;DHT22;30431;48.520;9.046;2023-02-02T15:57:31;6.90;99.90
44705;DHT22;30431;48.520;9.046;2023-02-02T16:00:01;6.80;99.90
44705;DHT22;30431;48.520;9.046;2023-02-02T16:02:50;6.90;99.90
44705;DHT22;30431;48.520;9.046;2023-02-02T16:05:46;6.80;99.90
44705;DHT22;30431;48.520;9.046;2023-02-02T16:08:20;6.80;99.90
44705;DHT22;30431;48.520;9.046;2023-02-02T16:11:15;6.80;99.90
44705;DHT22;30431;48.520;9.046;2023-02-02T16:13:57;6.70;99.90
44705;DHT22;30431;48.520;9.046;2023-02-02T16:16:34;6.70;99.90
44705;DHT22;30431;48.520;9.046;2023-02-02T16:19:26;6.70;99.90
44705;DHT22;30431;48.520;9.046;2023-02-02T16:22:05;6.80;99.90
44705;DHT22;30431;48.520;9.046;2023-02-02T16:24:40;6.70;99.90
44705;DHT22;30431;48.520;9.046;2023-02-02T16:27:12;6.70;99.90
44705;DHT22;30431;48.520;9.046;2023-02-02T16:29:41;6.80;99.90
44705;DHT22;30431;48.520;9.046;2023-02-02T16:32:27;6.70;99.90
44705;DHT22;30431;48.520;9.046;2023-02-02T16:34:55;6.70;99.90
44705;DHT22;30431;48.520;9.046;2023-02-02T16:37:32;6.70;99.90
44705;DHT22;30431;48.520;9.046;2023-02-02T16:40:25;6.70;99.90
44705;DHT22;30431;48.520;9.046;2023-02-02T16:45:59;6.80;99.90
44705;DHT22;30431;48.520;9.046;2023-02-02T16:48:32;6.70;99.90
44705;DHT22;30431;48.520;9.046;2023-02-02T16:51:10;6.70;99.90
44705;DHT22;30431;48.520;9.046;2023-02-02T16:53:55;6.70;99.90
44705;DHT22;30431;48.520;9.046;2023-02-02T16:56:32;6.70;99.90
44705;DHT22;30431;48.520;9.046;2023-02-02T17:01:51;6.80;99.90
44705;DHT22;30431;48.520;9.046;2023-02-02T17:04:26;6.80;99.90
44705;DHT22;30431;48.520;9.046;2023-02-02T17:06:56;6.70;99.90
44705;DHT22;30431;48.520;9.046;2023-02-02T17:09:29;6.70;99.90
44705;DHT22;30431;48.520;9.046;2023-02-02T17:12:19;6.70;99.90
44705;DHT22;30431;48.520;9.046;2023-02-02T17:15:26;6.70;99.90
44705;DHT22;30431;48.520;9.046;2023-02-02T17:18:00;6.70;99.90
44705;DHT22;30431;48.520;9.046;2023-02-02T17:20:27;6.70;99.90
44705;DHT22;30431;48.520;9.046;2023-02-02T17:23:03;6.70;99.90
44705;DHT22;30431;48.520;9.046;2023-02-02T17:25:36;6.70;99.90
44705;DHT22;30431;48.520;9.046;2023-02-02T17:28:10;6.70;99.90
44705;DHT22;30431;48.520;9.046;2023-02-02T17:30:41;6.70;99.90
44705;DHT22;30431;48.520;9.046;2023-02-02T17:33:16;6.70;99.90
44705;DHT22;30431;48.520;9.046;2023-02-02T17:35:44;6.70;99.90
44705;DHT22;30431;48.520;9.046;2023-02-02T17:38:21;6.70;99.90
44705;DHT22;30431;48.520;9.046;2023-02-02T17:40:49;6.70;99.90
44705;DHT22;30431;48.520;9.046;2023-02-02T17:43:16;6.70;99.90
44705;DHT22;30431;48.520;9.046;2023-02-02T17:45:43;6.70;99.90
44705;DHT22;30431;48.520;9.046;2023-02-02T17:48:15;6.70;99.90
44705;DHT22;30431;48.520;9.046;2023-02-02T17:50:42;6.70;99.90
44705;DHT22;30431;48.520;9.046;2023-02-02T17:53:15;6.70;99.90
44705;DHT22;30431;48.520;9.046;2023-02-02T17:55:46;6.70;99.90
44705;DHT22;30431;48.520;9.046;2023-02-02T17:58:15;6.70;99.90
44705;DHT22;30431;48.520;9.046;2023-02-02T18:00:47;6.60;99.90
44705;DHT22;30431;48.520;9.046;2023-02-02T18:03:32;6.70;99.90
44705;DHT22;30431;48.520;9.046;2023-02-02T18:06:01;6.70;99.90
44705;DHT22;30431;48.520;9.046;2023-02-02T18:08:29;6.70;99.90
44705;DHT22;30431;48.520;9.046;2023-02-02T18:10:56;6.70;99.90
44705;DHT22;30431;48.520;9.046;2023-02-02T18:13:26;6.70;99.90
44705;DHT22;30431;48.520;9.046;2023-02-02T18:15:56;6.70;99.90
44705;DHT22;30431;48.520;9.046;2023-02-02T18:18:25;6.60;99.90
44705;DHT22;30431;48.520;9.046;2023-02-02T18:20:53;6.60;99.90
44705;DHT22;30431;48.520;9.046;2023-02-02T18:23:19;6.60;99.90
44705;DHT22;30431;48.520;9.046;2023-02-02T18:25:50;6.70;99.90
44705;DHT22;30431;48.520;9.046;2023-02-02T18:28:18;6.70;99.90
44705;DHT22;30431;48.520;9.046;2023-02-02T18:30:48;6.80;99.90
44705;DHT22;30431;48.520;9.046;2023-02-02T18:33:16;7.00;99.90
44705;DHT22;30431;48.520;9.046;2023-02-02T18:35:46;7.00;99.90
44705;DHT22;30431;48.520;9.046;2023-02-02T18:38:14;6.80;99.90
44705;DHT22;30431;48.520;9.046;2023-02-02T18:40:41;6.80;99.90
44705;DHT22;30431;48.520;9.046;2023-02-02T18:43:11;6.70;99.90
44705;DHT22;30431;48.520;9.046;2023-02-02T18:45:38;6.60;99.90
44705;DHT22;30431;48.520;9.046;2023-02-02T18:48:05;6.60;99.90
44705;DHT22;30431;48.520;9.046;2023-02-02T18:50:35;6.60;99.90
44705;DHT22;30431;48.520;9.046;2023-02-02T18:53:01;6.50;99.90
44705;DHT22;30431;48.520;9.046;2023-02-02T18:55:28;6.40;99.90
44705;DHT22;30431;48.520;9.046;2023-02-02T18:57:55;6.30;99.90
44705;DHT22;30431;48.520;9.046;2023-02-02T19:00:22;6.30;99.90
44705;DHT22;30431;48.520;9.046;2023-02-02T19:02:50;6.30;99.90
44705;DHT22;30431;48.520;9.046;2023-02-02T19:05:17;6.30;99.90
44705;DHT22;30431;48.520;9.046;2023-02-02T19:08:02;6.20;99.90
44705;DHT22;30431;48.520;9.046;2023-02-02T19:10:30;6.10;99.90
44705;DHT22;30431;48.520;9.046;2023-02-02T19:12:57;6.00;99.90
44705;DHT22;30431;48.520;9.046;2023-02-02T19:15:32;6.00;99.90
44705;DHT22;30431;48.520;9.046;2023-02-02T19:18:00;6.00;99.90
44705;DHT22;30431;48.520;9.046;2023-02-02T19:20:28;6.00;99.90
44705;DHT22;30431;48.520;9.046;2023-02-02T19:23:05;6.00;99.90
44705;DHT22;30431;48.520;9.046;2023-02-02T19:25:33;6.00;99.90
44705;DHT22;30431;48.520;9.046;2023-02-02T19:28:27;6.00;99.90
44705;DHT22;30431;48.520;9.046;2023-02-02T19:30:58;5.90;99.90